createdAt,value
2023-04-21T00:00:21.683Z,979.90
2023-04-21T00:01:21.685Z,979.90
2023-04-21T00:02:21.724Z,979.89
2023-04-21T00:03:21.884Z,979.96
2023-04-21T00:04:21.769Z,979.91
2023-04-21T00:05:21.847Z,979.80
2023-04-21T00:06:21.631Z,979.87
2023-04-21T00:07:21.630Z,979.88
2023-04-21T00:08:21.619Z,979.83
2023-04-21T00:09:21.780Z,979.85
2023-04-21T00:10:21.593Z,979.90
2023-04-21T00:11:21.583Z,979.79
2023-04-21T00:12:21.579Z,979.84
2023-04-21T00:13:21.567Z,979.89
2023-04-21T00:14:21.552Z,979.82
2023-04-21T00:15:21.545Z,979.86
2023-04-21T00:16:22.555Z,979.86
2023-04-21T00:17:21.540Z,979.80
2023-04-21T00:18:21.516Z,979.79
2023-04-21T00:19:21.529Z,979.78
2023-04-21T00:20:21.493Z,979.76
2023-04-21T00:21:21.490Z,979.80
2023-04-21T00:22:21.488Z,979.76
2023-04-21T00:23:21.467Z,979.81
2023-04-21T00:24:21.466Z,979.76
2023-04-21T00:25:21.455Z,979.79
2023-04-21T00:26:21.445Z,979.76
2023-04-21T00:27:21.443Z,979.73
2023-04-21T00:28:21.426Z,979.70
2023-04-21T00:29:21.756Z,979.68
2023-04-21T00:30:21.411Z,979.68
2023-04-21T00:31:21.409Z,979.66
2023-04-21T00:32:21.402Z,979.63
2023-04-21T00:33:21.410Z,979.67
2023-04-21T00:34:21.367Z,979.63
2023-04-21T00:35:21.368Z,979.63
2023-04-21T00:36:21.353Z,979.55
2023-04-21T00:37:21.359Z,979.56
2023-04-21T00:38:21.332Z,979.63
2023-04-21T00:39:21.564Z,979.67
2023-04-21T00:40:21.312Z,979.67
2023-04-21T00:41:21.300Z,979.68
2023-04-21T00:42:21.307Z,979.69
2023-04-21T00:43:21.280Z,979.63
2023-04-21T00:44:21.274Z,979.68
2023-04-21T00:45:21.266Z,979.60
2023-04-21T00:46:21.305Z,979.65
2023-04-21T00:47:21.286Z,979.60
2023-04-21T00:48:21.228Z,979.62
2023-04-21T00:49:21.259Z,979.62
2023-04-21T00:50:21.211Z,979.62
2023-04-21T00:51:21.206Z,979.60
2023-04-21T00:52:21.205Z,979.58
2023-04-21T00:53:21.184Z,979.66
2023-04-21T00:54:21.178Z,979.52
2023-04-21T00:55:21.181Z,979.59
2023-04-21T00:56:21.163Z,979.55
2023-04-21T00:57:21.175Z,979.70
2023-04-21T00:58:21.136Z,979.61
2023-04-21T00:59:21.377Z,979.57
2023-04-21T01:00:21.116Z,979.62
2023-04-21T01:01:21.209Z,979.64
2023-04-21T01:02:21.182Z,979.58
2023-04-21T01:03:21.198Z,979.58
2023-04-21T01:04:21.086Z,979.62
2023-04-21T01:05:21.073Z,979.56
2023-04-21T01:06:21.060Z,979.54
2023-04-21T01:07:21.056Z,979.66
2023-04-21T01:08:21.034Z,979.65
2023-04-21T01:09:21.238Z,979.70
2023-04-21T01:10:21.011Z,979.65
2023-04-21T01:11:21.009Z,979.67
2023-04-21T01:12:21.019Z,979.76
2023-04-21T01:13:21.014Z,979.71
2023-04-21T01:14:20.987Z,979.75
2023-04-21T01:15:20.964Z,979.74
2023-04-21T01:16:20.982Z,979.73
2023-04-21T01:17:20.944Z,979.77
2023-04-21T01:18:20.950Z,979.78
2023-04-21T01:19:21.103Z,979.75
2023-04-21T01:20:20.919Z,979.69
2023-04-21T01:21:20.909Z,979.71
2023-04-21T01:22:20.900Z,979.79
2023-04-21T01:23:20.903Z,979.81
2023-04-21T01:24:20.877Z,979.83
2023-04-21T01:25:20.870Z,979.79
2023-04-21T01:26:20.863Z,979.79
2023-04-21T01:27:20.849Z,979.77
2023-04-21T01:28:20.851Z,979.77
2023-04-21T01:29:20.994Z,979.75
2023-04-21T01:30:20.816Z,979.77
2023-04-21T01:31:20.808Z,979.80
2023-04-21T01:32:20.920Z,979.76
2023-04-21T01:33:20.803Z,979.76
2023-04-21T01:34:20.785Z,979.74
2023-04-21T01:35:20.757Z,979.67
2023-04-21T01:36:21.768Z,979.72
2023-04-21T01:37:20.779Z,979.70
2023-04-21T01:38:20.744Z,979.70
2023-04-21T01:39:20.842Z,979.71
2023-04-21T01:40:20.723Z,979.68
2023-04-21T01:41:20.712Z,979.69
2023-04-21T01:42:20.717Z,979.68
2023-04-21T01:43:20.690Z,979.62
2023-04-21T01:44:20.684Z,979.72
2023-04-21T01:45:20.661Z,979.69
2023-04-21T01:46:20.694Z,979.60
2023-04-21T01:47:20.654Z,979.65
2023-04-21T01:48:20.644Z,979.64
2023-04-21T01:49:20.812Z,979.57
2023-04-21T01:50:20.618Z,979.67
2023-04-21T01:51:20.600Z,979.60
2023-04-21T01:52:20.594Z,979.65
2023-04-21T01:53:20.606Z,979.67
2023-04-21T01:54:20.580Z,979.59
2023-04-21T01:55:20.571Z,979.63
2023-04-21T01:56:20.559Z,979.64
2023-04-21T01:57:20.577Z,979.60
2023-04-21T01:58:20.552Z,979.65
2023-04-21T01:59:20.633Z,979.63
2023-04-21T02:00:20.514Z,979.71
2023-04-21T02:01:20.563Z,979.69
2023-04-21T02:02:20.602Z,979.62
2023-04-21T02:03:20.602Z,979.68
2023-04-21T02:04:20.544Z,979.66
2023-04-21T02:05:20.473Z,979.71
2023-04-21T02:06:20.522Z,979.68
2023-04-21T02:07:21.463Z,979.63
2023-04-21T02:08:20.459Z,979.63
2023-04-21T02:09:20.752Z,979.69
2023-04-21T02:10:20.425Z,979.69
2023-04-21T02:11:20.412Z,979.66
2023-04-21T02:12:20.407Z,979.70
2023-04-21T02:13:20.392Z,979.68
2023-04-21T02:14:20.380Z,979.65
2023-04-21T02:15:20.368Z,979.67
2023-04-21T02:16:20.437Z,979.75
2023-04-21T02:17:20.351Z,979.75
2023-04-21T02:18:20.348Z,979.69
2023-04-21T02:19:20.680Z,979.74
2023-04-21T02:20:20.317Z,979.70
2023-04-21T02:21:20.309Z,979.69
2023-04-21T02:22:20.297Z,979.74
2023-04-21T02:23:20.299Z,979.75
2023-04-21T02:24:20.279Z,979.79
2023-04-21T02:25:20.278Z,979.75
2023-04-21T02:26:20.259Z,979.71
2023-04-21T02:27:20.246Z,979.78
2023-04-21T02:28:20.246Z,979.72
2023-04-21T02:29:20.355Z,979.74
2023-04-21T02:30:20.217Z,979.71
2023-04-21T02:31:20.247Z,979.64
2023-04-21T02:32:26.033Z,979.71
2023-04-21T02:33:22.240Z,979.68
2023-04-21T02:34:20.181Z,979.61
2023-04-21T02:35:20.173Z,979.67
2023-04-21T02:36:20.164Z,979.69
2023-04-21T02:37:20.161Z,979.60
2023-04-21T02:38:20.144Z,979.61
2023-04-21T02:39:20.358Z,979.58
2023-04-21T02:40:20.120Z,979.57
2023-04-21T02:41:20.101Z,979.58
2023-04-21T02:42:20.119Z,979.59
2023-04-21T02:43:20.090Z,979.61
2023-04-21T02:44:20.078Z,979.60
2023-04-21T02:45:20.072Z,979.56
2023-04-21T02:46:20.077Z,979.60
2023-04-21T02:47:20.088Z,979.55
2023-04-21T02:48:20.029Z,979.61
2023-04-21T02:49:21.337Z,979.60
2023-04-21T02:50:20.020Z,979.56
2023-04-21T02:51:20.013Z,979.61
2023-04-21T02:52:20.005Z,979.54
2023-04-21T02:53:19.998Z,979.58
2023-04-21T02:54:19.977Z,979.56
2023-04-21T02:55:19.968Z,979.61
2023-04-21T02:56:19.951Z,979.54
2023-04-21T02:57:19.948Z,979.54
2023-04-21T02:58:19.953Z,979.60
2023-04-21T02:59:20.467Z,979.62
2023-04-21T03:00:19.906Z,979.63
2023-04-21T03:01:19.994Z,979.59
2023-04-21T03:02:19.909Z,979.67
2023-04-21T03:03:20.051Z,979.68
2023-04-21T03:04:20.040Z,979.69
2023-04-21T03:05:19.858Z,979.68
2023-04-21T03:06:19.863Z,979.61
2023-04-21T03:07:19.840Z,979.65
2023-04-21T03:08:19.837Z,979.60
2023-04-21T03:09:20.079Z,979.63
2023-04-21T03:10:19.814Z,979.63
2023-04-21T03:11:19.799Z,979.60
2023-04-21T03:12:19.787Z,979.67
2023-04-21T03:13:20.864Z,979.63
2023-04-21T03:14:19.778Z,979.64
2023-04-21T03:15:19.760Z,979.73
2023-04-21T03:16:19.784Z,979.66
2023-04-21T03:17:19.787Z,979.67
2023-04-21T03:18:19.742Z,979.63
2023-04-21T03:19:19.932Z,979.68
2023-04-21T03:20:19.711Z,979.68
2023-04-21T03:21:19.703Z,979.61
2023-04-21T03:22:19.703Z,979.66
2023-04-21T03:23:19.698Z,979.62
2023-04-21T03:24:19.686Z,979.65
2023-04-21T03:25:19.666Z,979.62
2023-04-21T03:26:19.680Z,979.57
2023-04-21T03:27:19.672Z,979.59
2023-04-21T03:28:19.649Z,979.57
2023-04-21T03:29:19.902Z,979.53
2023-04-21T03:30:19.623Z,979.53
2023-04-21T03:31:19.605Z,979.55
2023-04-21T03:32:19.714Z,979.49
2023-04-21T03:33:19.606Z,979.46
2023-04-21T03:34:19.588Z,979.47
2023-04-21T03:35:19.570Z,979.48
2023-04-21T03:36:19.574Z,979.39
2023-04-21T03:37:19.581Z,979.45
2023-04-21T03:38:19.555Z,979.47
2023-04-21T03:39:20.418Z,979.47
2023-04-21T03:40:20.522Z,979.54
2023-04-21T03:41:19.508Z,979.51
2023-04-21T03:42:19.516Z,979.50
2023-04-21T03:43:19.514Z,979.51
2023-04-21T03:44:19.483Z,979.49
2023-04-21T03:45:19.483Z,979.47
2023-04-21T03:46:19.505Z,979.47
2023-04-21T03:47:19.455Z,979.46
2023-04-21T03:48:19.455Z,979.47
2023-04-21T03:49:19.589Z,979.54
2023-04-21T03:50:19.437Z,979.44
2023-04-21T03:51:19.417Z,979.46
2023-04-21T03:52:19.428Z,979.50
2023-04-21T03:53:19.403Z,979.51
2023-04-21T03:54:19.407Z,979.55
2023-04-21T03:55:19.386Z,979.51
2023-04-21T03:56:19.373Z,979.53
2023-04-21T03:57:19.381Z,979.55
2023-04-21T03:58:19.354Z,979.52
2023-04-21T03:59:19.426Z,979.52
2023-04-21T04:00:19.345Z,979.49
2023-04-21T04:01:19.323Z,979.51
2023-04-21T04:02:19.366Z,979.51
2023-04-21T04:03:21.711Z,979.52
2023-04-21T04:04:19.435Z,979.56
2023-04-21T04:05:19.380Z,979.57
2023-04-21T04:06:19.280Z,979.51
2023-04-21T04:07:19.282Z,979.55
2023-04-21T04:08:19.271Z,979.57
2023-04-21T04:09:19.583Z,979.60
2023-04-21T04:10:19.243Z,979.54
2023-04-21T04:11:19.231Z,979.55
2023-04-21T04:12:19.236Z,979.61
2023-04-21T04:13:19.224Z,979.59
2023-04-21T04:14:19.200Z,979.57
2023-04-21T04:15:19.196Z,979.53
2023-04-21T04:16:19.229Z,979.65
2023-04-21T04:17:19.186Z,979.55
2023-04-21T04:18:19.166Z,979.59
2023-04-21T04:19:19.425Z,979.55
2023-04-21T04:20:19.150Z,979.51
2023-04-21T04:21:19.139Z,979.52
2023-04-21T04:22:19.135Z,979.49
2023-04-21T04:23:19.118Z,979.47
2023-04-21T04:24:19.108Z,979.55
2023-04-21T04:25:19.105Z,979.48
2023-04-21T04:26:19.093Z,979.54
2023-04-21T04:27:19.084Z,979.55
2023-04-21T04:28:19.066Z,979.61
2023-04-21T04:29:19.354Z,979.64
2023-04-21T04:30:19.050Z,979.62
2023-04-21T04:31:19.116Z,979.65
2023-04-21T04:32:19.036Z,979.59
2023-04-21T04:33:19.023Z,979.71
2023-04-21T04:34:19.005Z,979.60
2023-04-21T04:35:19.010Z,979.65
2023-04-21T04:36:18.985Z,979.56
2023-04-21T04:37:18.996Z,979.67
2023-04-21T04:38:18.967Z,979.69
2023-04-21T04:39:19.157Z,979.60
2023-04-21T04:40:18.946Z,979.65
2023-04-21T04:41:18.933Z,979.64
2023-04-21T04:42:18.926Z,979.65
2023-04-21T04:43:18.928Z,979.56
2023-04-21T04:44:19.173Z,979.61
2023-04-21T04:45:18.891Z,979.61
2023-04-21T04:46:18.904Z,979.65
2023-04-21T04:47:18.883Z,979.69
2023-04-21T04:48:18.876Z,979.70
2023-04-21T04:49:18.867Z,979.68
2023-04-21T04:50:18.840Z,979.65
2023-04-21T04:51:18.832Z,979.61
2023-04-21T04:52:18.825Z,979.67
2023-04-21T04:53:18.820Z,979.67
2023-04-21T04:54:19.060Z,979.71
2023-04-21T04:55:18.785Z,979.67
2023-04-21T04:56:18.785Z,979.74
2023-04-21T04:57:18.770Z,979.69
2023-04-21T04:58:18.775Z,979.68
2023-04-21T04:59:18.757Z,979.75
2023-04-21T05:00:18.760Z,979.72
2023-04-21T05:01:18.773Z,979.70
2023-04-21T05:02:18.960Z,979.70
2023-04-21T05:03:18.965Z,979.66
2023-04-21T05:04:18.852Z,979.70
2023-04-21T05:05:18.691Z,979.74
2023-04-21T05:06:18.681Z,979.75
2023-04-21T05:07:18.674Z,979.81
2023-04-21T05:08:18.682Z,979.82
2023-04-21T05:09:18.660Z,979.84
2023-04-21T05:10:18.649Z,979.83
2023-04-21T05:11:18.642Z,979.85
2023-04-21T05:12:18.632Z,979.90
2023-04-21T05:13:18.646Z,979.89
2023-04-21T05:14:18.906Z,979.91
2023-04-21T05:15:18.613Z,979.80
2023-04-21T05:16:18.610Z,979.85
2023-04-21T05:17:18.583Z,979.75
2023-04-21T05:18:18.592Z,979.78
2023-04-21T05:19:18.870Z,979.89
2023-04-21T05:20:19.552Z,979.85
2023-04-21T05:21:19.542Z,979.80
2023-04-21T05:22:18.536Z,979.87
2023-04-21T05:23:18.543Z,979.88
2023-04-21T05:24:18.662Z,979.89
2023-04-21T05:25:18.514Z,979.93
2023-04-21T05:26:18.498Z,979.90
2023-04-21T05:27:18.494Z,979.90
2023-04-21T05:28:18.482Z,979.89
2023-04-21T05:29:18.465Z,979.92
2023-04-21T05:30:18.454Z,979.85
2023-04-21T05:31:18.455Z,979.91
2023-04-21T05:32:18.559Z,979.98
2023-04-21T05:33:18.526Z,979.96
2023-04-21T05:34:18.596Z,980.00
2023-04-21T05:35:18.404Z,979.96
2023-04-21T05:36:18.392Z,979.93
2023-04-21T05:37:18.386Z,980.02
2023-04-21T05:38:18.384Z,979.98
2023-04-21T05:39:18.368Z,980.03
2023-04-21T05:40:18.352Z,980.05
2023-04-21T05:41:18.348Z,980.01
2023-04-21T05:42:18.378Z,980.05
2023-04-21T05:43:18.335Z,980.13
2023-04-21T05:44:18.570Z,980.07
2023-04-21T05:45:18.304Z,980.09
2023-04-21T05:46:18.339Z,980.07
2023-04-21T05:47:18.284Z,980.08
2023-04-21T05:48:18.346Z,980.09
2023-04-21T05:49:18.265Z,980.17
2023-04-21T05:50:18.251Z,980.08
2023-04-21T05:51:18.240Z,980.06
2023-04-21T05:52:18.231Z,980.08
2023-04-21T05:53:18.225Z,980.08
2023-04-21T05:54:18.465Z,980.07
2023-04-21T05:55:18.195Z,980.13
2023-04-21T05:56:18.194Z,980.13
2023-04-21T05:57:18.174Z,980.07
2023-04-21T05:58:18.174Z,980.06
2023-04-21T05:59:18.149Z,980.05
2023-04-21T06:00:18.138Z,980.02
2023-04-21T06:01:18.128Z,980.06
2023-04-21T06:02:18.237Z,980.06
2023-04-21T06:03:18.302Z,980.06
2023-04-21T06:04:18.311Z,980.08
2023-04-21T06:05:18.120Z,980.11
2023-04-21T06:06:18.076Z,980.07
2023-04-21T06:07:18.801Z,980.03
2023-04-21T06:08:19.073Z,980.05
2023-04-21T06:09:18.059Z,980.02
2023-04-21T06:10:18.044Z,979.98
2023-04-21T06:11:18.027Z,980.03
2023-04-21T06:12:18.017Z,980.00
2023-04-21T06:13:18.025Z,980.01
2023-04-21T06:14:18.154Z,980.05
2023-04-21T06:15:17.995Z,980.06
2023-04-21T06:16:18.034Z,980.10
2023-04-21T06:17:17.979Z,980.07
2023-04-21T06:18:17.969Z,980.12
2023-04-21T06:19:17.948Z,980.05
2023-04-21T06:20:17.951Z,980.02
2023-04-21T06:21:17.959Z,980.01
2023-04-21T06:22:17.927Z,980.06
2023-04-21T06:23:17.932Z,980.03
2023-04-21T06:24:18.194Z,980.04
2023-04-21T06:25:17.905Z,980.04
2023-04-21T06:26:17.879Z,979.96
2023-04-21T06:27:17.890Z,979.98
2023-04-21T06:28:17.885Z,979.98
2023-04-21T06:29:17.866Z,979.95
2023-04-21T06:30:17.840Z,979.94
2023-04-21T06:31:17.861Z,979.99
2023-04-21T06:32:17.847Z,979.97
2023-04-21T06:33:17.815Z,980.03
2023-04-21T06:34:17.921Z,980.04
2023-04-21T06:35:17.794Z,979.91
2023-04-21T06:36:18.256Z,979.92
2023-04-21T06:37:17.798Z,979.92
2023-04-21T06:38:17.775Z,979.94
2023-04-21T06:39:17.748Z,979.92
2023-04-21T06:40:17.735Z,979.91
2023-04-21T06:41:17.751Z,979.93
2023-04-21T06:42:17.734Z,979.88
2023-04-21T06:43:17.714Z,979.86
2023-04-21T06:44:17.948Z,979.94
2023-04-21T06:45:17.690Z,979.96
2023-04-21T06:46:17.684Z,979.95
2023-04-21T06:47:17.790Z,979.92
2023-04-21T06:48:17.655Z,979.89
2023-04-21T06:49:17.769Z,979.94
2023-04-21T06:50:17.630Z,980.01
2023-04-21T06:51:17.624Z,979.83
2023-04-21T06:52:18.928Z,979.84
2023-04-21T06:53:18.607Z,979.86
2023-04-21T06:54:17.592Z,979.85
2023-04-21T06:55:17.599Z,979.91
2023-04-21T06:56:17.574Z,979.84
2023-04-21T06:57:17.580Z,979.82
2023-04-21T06:58:20.548Z,979.82
2023-04-21T06:59:17.714Z,979.86
2023-04-21T07:00:17.542Z,979.84
2023-04-21T07:01:17.580Z,979.79
2023-04-21T07:02:17.549Z,979.84
2023-04-21T07:03:17.669Z,979.83
2023-04-21T07:04:17.537Z,979.76
2023-04-21T07:05:17.481Z,979.79
2023-04-21T07:06:17.476Z,979.77
2023-04-21T07:07:17.470Z,979.78
2023-04-21T07:08:17.452Z,979.80
2023-04-21T07:09:17.695Z,979.82
2023-04-21T07:10:17.433Z,979.84
2023-04-21T07:11:17.422Z,979.80
2023-04-21T07:12:17.449Z,979.79
2023-04-21T07:13:17.411Z,979.80
2023-04-21T07:14:17.390Z,979.83
2023-04-21T07:15:17.380Z,979.79
2023-04-21T07:16:17.394Z,979.77
2023-04-21T07:17:17.377Z,979.86
2023-04-21T07:18:17.388Z,979.72
2023-04-21T07:19:17.561Z,979.80
2023-04-21T07:20:17.374Z,979.74
2023-04-21T07:21:17.319Z,979.76
2023-04-21T07:22:17.314Z,979.75
2023-04-21T07:23:17.292Z,979.71
2023-04-21T07:24:17.284Z,979.75
2023-04-21T07:25:17.373Z,979.80
2023-04-21T07:26:17.266Z,979.83
2023-04-21T07:27:17.268Z,979.85
2023-04-21T07:28:17.250Z,979.74
2023-04-21T07:29:17.315Z,979.79
2023-04-21T07:30:17.228Z,979.79
2023-04-21T07:31:17.296Z,979.82
2023-04-21T07:32:17.218Z,979.81
2023-04-21T07:33:17.197Z,979.75
2023-04-21T07:34:17.191Z,979.74
2023-04-21T07:35:17.172Z,979.72
2023-04-21T07:36:17.168Z,979.76
2023-04-21T07:37:17.172Z,979.73
2023-04-21T07:38:17.146Z,979.72
2023-04-21T07:39:17.521Z,979.76
2023-04-21T07:40:17.135Z,979.70
2023-04-21T07:41:17.117Z,979.68
2023-04-21T07:42:17.263Z,979.70
2023-04-21T07:43:17.089Z,979.66
2023-04-21T07:44:17.080Z,979.65
2023-04-21T07:45:17.078Z,979.67
2023-04-21T07:46:17.110Z,979.66
2023-04-21T07:47:17.049Z,979.68
2023-04-21T07:48:17.055Z,979.68
2023-04-21T07:49:17.025Z,979.64
2023-04-21T07:50:17.021Z,979.66
2023-04-21T07:51:17.007Z,979.64
2023-04-21T07:52:17.002Z,979.64
2023-04-21T07:53:16.985Z,979.64
2023-04-21T07:54:16.975Z,979.54
2023-04-21T07:55:16.962Z,979.59
2023-04-21T07:56:16.956Z,979.62
2023-04-21T07:57:16.963Z,979.61
2023-04-21T07:58:16.929Z,979.56
2023-04-21T07:59:17.145Z,979.60
2023-04-21T08:00:16.909Z,979.54
2023-04-21T08:01:16.943Z,979.57
2023-04-21T08:02:16.946Z,979.50
2023-04-21T08:03:17.108Z,979.49
2023-04-21T08:04:16.996Z,979.49
2023-04-21T08:05:17.094Z,979.50
2023-04-21T08:06:17.244Z,979.44
2023-04-21T08:07:16.907Z,979.46
2023-04-21T08:08:16.823Z,979.44
2023-04-21T08:09:16.944Z,979.47
2023-04-21T08:10:16.801Z,979.49
2023-04-21T08:11:16.801Z,979.37
2023-04-21T08:12:16.802Z,979.43
2023-04-21T08:13:16.767Z,979.47
2023-04-21T08:14:16.924Z,979.48
2023-04-21T08:15:16.760Z,979.44
2023-04-21T08:16:16.788Z,979.43
2023-04-21T08:17:16.743Z,979.47
2023-04-21T08:18:16.880Z,979.42
2023-04-21T08:19:16.818Z,979.41
2023-04-21T08:20:16.712Z,979.42
2023-04-21T08:21:16.727Z,979.41
2023-04-21T08:22:16.670Z,979.43
2023-04-21T08:23:16.727Z,979.43
2023-04-21T08:24:16.705Z,979.47
2023-04-21T08:25:16.637Z,979.43
2023-04-21T08:26:16.675Z,979.45
2023-04-21T08:27:16.618Z,979.48
2023-04-21T08:28:16.798Z,979.39
2023-04-21T08:29:16.599Z,979.47
2023-04-21T08:30:16.597Z,979.45
2023-04-21T08:31:16.603Z,979.48
2023-04-21T08:32:16.575Z,979.46
2023-04-21T08:33:16.671Z,979.43
2023-04-21T08:34:16.564Z,979.41
2023-04-21T08:35:16.562Z,979.42
2023-04-21T08:36:28.267Z,979.39
2023-04-21T08:37:18.530Z,979.48
2023-04-21T08:38:16.529Z,979.47
2023-04-21T08:39:16.573Z,979.44
2023-04-21T08:40:16.485Z,979.41
2023-04-21T08:41:16.478Z,979.50
2023-04-21T08:42:16.470Z,979.43
2023-04-21T08:43:16.469Z,979.43
2023-04-21T08:44:16.458Z,979.29
2023-04-21T08:45:16.465Z,979.33
2023-04-21T08:46:16.522Z,979.27
2023-04-21T08:47:16.418Z,979.38
2023-04-21T08:48:16.431Z,979.26
2023-04-21T08:49:16.413Z,979.26
2023-04-21T08:50:16.390Z,979.24
2023-04-21T08:51:16.376Z,979.31
2023-04-21T08:52:16.362Z,979.28
2023-04-21T08:53:16.365Z,979.33
2023-04-21T08:54:16.345Z,979.28
2023-04-21T08:55:16.322Z,979.22
2023-04-21T08:56:17.333Z,979.26
2023-04-21T08:57:16.497Z,979.30
2023-04-21T08:58:16.314Z,979.28
2023-04-21T08:59:16.305Z,979.36
2023-04-21T09:00:16.287Z,979.35
2023-04-21T09:01:16.353Z,979.36
2023-04-21T09:02:16.454Z,979.29
2023-04-21T09:03:24.917Z,979.42
2023-04-21T09:04:18.382Z,979.33
2023-04-21T09:05:16.575Z,979.36
2023-04-21T09:06:16.715Z,979.39
2023-04-21T09:07:16.211Z,979.43
2023-04-21T09:08:16.211Z,979.47
2023-04-21T09:09:16.184Z,979.50
2023-04-21T09:10:16.189Z,979.40
2023-04-21T09:11:16.234Z,979.45
2023-04-21T09:12:16.164Z,979.43
2023-04-21T09:13:16.162Z,979.37
2023-04-21T09:14:17.136Z,979.39
2023-04-21T09:15:16.140Z,979.40
2023-04-21T09:16:16.129Z,979.39
2023-04-21T09:17:16.166Z,979.32
2023-04-21T09:18:16.104Z,979.26
2023-04-21T09:19:16.089Z,979.29
2023-04-21T09:20:16.071Z,979.26
2023-04-21T09:21:16.138Z,979.28
2023-04-21T09:22:16.055Z,979.27
2023-04-21T09:23:16.051Z,979.25
2023-04-21T09:24:16.045Z,979.27
2023-04-21T09:25:16.024Z,979.26
2023-04-21T09:26:16.051Z,979.19
2023-04-21T09:27:16.004Z,979.13
2023-04-21T09:28:16.004Z,979.16
2023-04-21T09:29:15.978Z,979.15
2023-04-21T09:30:15.975Z,979.20
2023-04-21T09:31:16.121Z,979.16
2023-04-21T09:32:15.959Z,979.11
2023-04-21T09:33:27.265Z,979.17
2023-04-21T09:34:17.933Z,979.15
2023-04-21T09:35:15.922Z,979.13
2023-04-21T09:36:15.920Z,979.13
2023-04-21T09:37:18.619Z,979.15
2023-04-21T09:38:15.902Z,979.19
2023-04-21T09:39:30.132Z,979.05
2023-04-21T09:40:17.902Z,979.00
2023-04-21T09:41:15.858Z,979.06
2023-04-21T09:42:15.863Z,979.02
2023-04-21T09:43:15.853Z,978.99
2023-04-21T09:44:15.828Z,978.96
2023-04-21T09:45:36.471Z,978.96
2023-04-21T09:46:17.842Z,978.91
2023-04-21T09:47:15.808Z,978.91
2023-04-21T09:48:15.801Z,978.94
2023-04-21T09:49:15.776Z,978.93
2023-04-21T09:50:16.397Z,978.95
2023-04-21T09:51:28.163Z,978.88
2023-04-21T09:52:19.453Z,978.88
2023-04-21T09:53:16.852Z,978.76
2023-04-21T09:54:28.288Z,978.84
2023-04-21T09:55:17.730Z,978.83
2023-04-21T09:56:15.740Z,978.87
2023-04-21T09:57:15.700Z,978.86
2023-04-21T09:58:15.709Z,978.91
2023-04-21T09:59:15.675Z,978.88
2023-04-21T10:00:15.674Z,978.85
2023-04-21T10:01:15.772Z,978.96
2023-04-21T10:02:15.813Z,978.97
2023-04-21T10:03:15.831Z,978.88
2023-04-21T10:04:15.931Z,978.83
2023-04-21T10:05:15.650Z,978.84
2023-04-21T10:06:15.653Z,978.93
2023-04-21T10:07:15.601Z,978.80
2023-04-21T10:08:15.595Z,978.79
2023-04-21T10:09:15.583Z,978.81
2023-04-21T10:10:15.568Z,978.88
2023-04-21T10:11:15.551Z,978.78
2023-04-21T10:12:15.559Z,978.74
2023-04-21T10:13:15.575Z,978.75
2023-04-21T10:14:15.525Z,978.77
2023-04-21T10:15:15.519Z,978.78
2023-04-21T10:16:15.546Z,978.69
2023-04-21T10:17:17.703Z,978.78
2023-04-21T10:18:15.507Z,978.69
2023-04-21T10:19:15.482Z,978.72
2023-04-21T10:20:15.472Z,978.70
2023-04-21T10:21:15.473Z,978.75
2023-04-21T10:22:15.461Z,978.71
2023-04-21T10:23:15.448Z,978.72
2023-04-21T10:24:15.435Z,978.73
2023-04-21T10:25:15.414Z,978.71
2023-04-21T10:26:16.430Z,978.69
2023-04-21T10:27:15.399Z,978.64
2023-04-21T10:28:15.405Z,978.61
2023-04-21T10:29:15.377Z,978.78
2023-04-21T10:30:15.370Z,978.79
2023-04-21T10:31:15.387Z,978.70
2023-04-21T10:32:15.571Z,978.70
2023-04-21T10:33:15.350Z,978.75
2023-04-21T10:34:15.336Z,978.66
2023-04-21T10:35:15.320Z,978.68
2023-04-21T10:36:15.311Z,978.68
2023-04-21T10:37:15.299Z,978.62
2023-04-21T10:38:15.306Z,978.70
2023-04-21T10:39:15.271Z,978.53
2023-04-21T10:40:15.290Z,978.63
2023-04-21T10:41:15.253Z,978.64
2023-04-21T10:42:15.248Z,978.53
2023-04-21T10:43:15.254Z,978.58
2023-04-21T10:44:15.268Z,978.52
2023-04-21T10:45:15.222Z,978.61
2023-04-21T10:46:15.215Z,978.53
2023-04-21T10:47:15.267Z,978.51
2023-04-21T10:48:15.294Z,978.47
2023-04-21T10:49:15.186Z,978.52
2023-04-21T10:50:15.216Z,978.47
2023-04-21T10:51:15.163Z,978.40
2023-04-21T10:52:15.150Z,978.45
2023-04-21T10:53:15.153Z,978.46
2023-04-21T10:54:15.134Z,978.34
2023-04-21T10:55:15.123Z,978.38
2023-04-21T10:56:15.112Z,978.34
2023-04-21T10:57:15.106Z,978.31
2023-04-21T10:58:15.104Z,978.30
2023-04-21T10:59:15.098Z,978.28
2023-04-21T11:00:15.106Z,978.23
2023-04-21T11:01:15.191Z,978.40
2023-04-21T11:02:15.166Z,978.21
2023-04-21T11:03:15.187Z,978.31
2023-04-21T11:04:15.284Z,978.36
2023-04-21T11:05:15.041Z,978.35
2023-04-21T11:06:15.021Z,978.25
2023-04-21T11:07:15.027Z,978.26
2023-04-21T11:08:15.025Z,978.29
2023-04-21T11:09:14.985Z,978.24
2023-04-21T11:10:14.997Z,978.28
2023-04-21T11:11:14.962Z,978.28
2023-04-21T11:12:14.956Z,978.30
2023-04-21T11:13:14.961Z,978.22
2023-04-21T11:14:14.948Z,978.21
2023-04-21T11:15:15.934Z,978.16
2023-04-21T11:16:14.949Z,978.16
2023-04-21T11:17:14.914Z,978.18
2023-04-21T11:18:14.926Z,978.21
2023-04-21T11:19:14.888Z,978.11
2023-04-21T11:20:14.883Z,978.15
2023-04-21T11:21:14.870Z,978.19
2023-04-21T11:22:14.860Z,978.09
2023-04-21T11:23:14.862Z,978.25
2023-04-21T11:24:14.839Z,978.17
2023-04-21T11:25:14.840Z,978.23
2023-04-21T11:26:14.829Z,978.10
2023-04-21T11:27:14.802Z,978.09
2023-04-21T11:28:14.812Z,978.16
2023-04-21T11:29:14.787Z,978.10
2023-04-21T11:30:14.777Z,978.09
2023-04-21T11:31:14.822Z,978.22
2023-04-21T11:32:14.756Z,978.14
2023-04-21T11:33:15.803Z,978.04
2023-04-21T11:34:14.742Z,978.12
2023-04-21T11:35:14.724Z,978.08
2023-04-21T11:36:14.732Z,978.10
2023-04-21T11:37:14.722Z,978.07
2023-04-21T11:38:14.708Z,978.11
2023-04-21T11:39:14.707Z,978.15
2023-04-21T11:40:14.673Z,978.08
2023-04-21T11:41:14.679Z,978.12
2023-04-21T11:42:14.664Z,977.96
2023-04-21T11:43:14.665Z,978.03
2023-04-21T11:44:14.644Z,978.01
2023-04-21T11:45:14.643Z,978.04
2023-04-21T11:46:14.671Z,978.05
2023-04-21T11:47:14.618Z,978.08
2023-04-21T11:48:14.647Z,977.96
2023-04-21T11:49:14.601Z,977.90
2023-04-21T11:50:14.591Z,977.92
2023-04-21T11:51:14.582Z,977.96
2023-04-21T11:52:14.567Z,977.88
2023-04-21T11:53:14.566Z,977.85
2023-04-21T11:54:14.563Z,977.89
2023-04-21T11:55:14.536Z,977.93
2023-04-21T11:56:14.535Z,977.83
2023-04-21T11:57:14.521Z,977.91
2023-04-21T11:58:14.518Z,977.92
2023-04-21T11:59:14.508Z,977.83
2023-04-21T12:00:14.493Z,977.93
2023-04-21T12:01:14.489Z,977.92
2023-04-21T12:02:14.517Z,977.89
2023-04-21T12:03:14.652Z,977.95
2023-04-21T12:04:14.643Z,977.95
2023-04-21T12:05:14.473Z,977.97
2023-04-21T12:06:14.455Z,977.99
2023-04-21T12:07:14.450Z,978.01
2023-04-21T12:08:14.420Z,978.05
2023-04-21T12:09:14.405Z,977.95
2023-04-21T12:10:14.430Z,978.02
2023-04-21T12:11:14.392Z,977.98
2023-04-21T12:12:14.373Z,978.00
2023-04-21T12:13:16.013Z,977.95
2023-04-21T12:14:14.365Z,977.98
2023-04-21T12:15:14.367Z,978.07
2023-04-21T12:16:14.385Z,977.97
2023-04-21T12:17:14.344Z,977.94
2023-04-21T12:18:14.423Z,977.97
2023-04-21T12:19:14.305Z,977.98
2023-04-21T12:20:14.297Z,978.06
2023-04-21T12:21:14.274Z,977.99
2023-04-21T12:22:14.272Z,978.12
2023-04-21T12:23:14.262Z,978.06
2023-04-21T12:24:14.269Z,978.03
2023-04-21T12:25:14.281Z,978.12
2023-04-21T12:26:14.226Z,978.23
2023-04-21T12:27:14.229Z,978.05
2023-04-21T12:28:14.207Z,978.12